createdAt,value
2023-02-18T00:00:38.108Z,10.67
2023-02-18T00:03:06.014Z,10.98
2023-02-18T00:05:33.651Z,10.99
2023-02-18T00:08:01.303Z,10.84
2023-02-18T00:10:29.447Z,10.77
2023-02-18T00:12:57.081Z,11.12
2023-02-18T00:15:24.817Z,11.08
2023-02-18T00:17:52.903Z,11.10
2023-02-18T00:20:20.648Z,11.00
2023-02-18T00:22:48.225Z,11.10
2023-02-18T00:25:16.188Z,11.17
2023-02-18T00:27:44.264Z,10.98
2023-02-18T00:30:12.185Z,11.03
2023-02-18T00:32:40.156Z,11.21
2023-02-18T00:35:08.365Z,11.44
2023-02-18T00:37:35.975Z,11.67
2023-02-18T00:40:05.868Z,11.92
2023-02-18T00:42:34.027Z,12.19
2023-02-18T00:45:01.775Z,12.38
2023-02-18T00:47:30.325Z,12.67
2023-02-18T00:49:59.658Z,12.62
2023-02-18T00:52:27.605Z,12.73
2023-02-18T00:54:55.512Z,12.64
2023-02-18T00:57:23.165Z,12.78
2023-02-18T00:59:50.916Z,12.93
2023-02-18T01:02:19.118Z,12.98
2023-02-18T01:04:46.805Z,12.92
2023-02-18T01:07:14.439Z,12.91
2023-02-18T01:09:43.571Z,12.95
2023-02-18T01:12:11.298Z,12.98
2023-02-18T01:14:38.979Z,12.98
2023-02-18T01:17:06.921Z,13.00
2023-02-18T01:19:34.794Z,13.07
2023-02-18T01:22:03.275Z,13.09
2023-02-18T01:24:31.231Z,13.15
2023-02-18T01:26:59.450Z,13.30
2023-02-18T01:29:27.389Z,13.28
2023-02-18T01:31:56.283Z,13.59
2023-02-18T01:34:24.020Z,13.58
2023-02-18T01:36:51.634Z,13.57
2023-02-18T01:39:19.632Z,13.51
2023-02-18T01:41:47.446Z,13.68
2023-02-18T01:44:24.199Z,13.57
2023-02-18T01:46:52.197Z,13.57
2023-02-18T01:49:27.198Z,13.70
2023-02-18T01:52:12.834Z,13.80
2023-02-18T01:54:49.521Z,13.55
2023-02-18T01:57:43.778Z,13.67
2023-02-18T02:00:17.521Z,13.66
2023-02-18T02:02:48.732Z,13.89
2023-02-18T02:05:16.672Z,13.80
2023-02-18T02:07:45.463Z,13.87
2023-02-18T02:10:14.548Z,13.92
2023-02-18T02:13:03.666Z,14.01
2023-02-18T02:15:37.050Z,13.94
2023-02-18T02:18:21.385Z,14.07
2023-02-18T02:21:28.336Z,14.02
2023-02-18T02:24:17.477Z,14.04
2023-02-18T02:26:58.625Z,14.16
2023-02-18T02:29:44.801Z,14.10
2023-02-18T02:32:41.511Z,14.16
2023-02-18T02:35:24.792Z,14.10
2023-02-18T02:38:33.197Z,14.32
2023-02-18T02:41:04.031Z,14.19
2023-02-18T02:43:42.609Z,14.25
2023-02-18T02:46:35.031Z,14.35
2023-02-18T02:49:27.237Z,14.29
2023-02-18T02:52:15.498Z,14.22
2023-02-18T02:54:43.359Z,14.35
2023-02-18T02:57:14.150Z,14.32
2023-02-18T02:59:47.321Z,14.52
2023-02-18T03:02:40.757Z,14.36
2023-02-18T03:05:29.390Z,14.32
2023-02-18T03:08:24.826Z,14.24
2023-02-18T03:10:52.339Z,14.33
2023-02-18T03:13:29.256Z,14.54
2023-02-18T03:16:31.782Z,14.41
2023-02-18T03:19:06.709Z,14.35
2023-02-18T03:21:56.112Z,14.30
2023-02-18T03:24:27.699Z,14.53
2023-02-18T03:26:59.470Z,14.30
2023-02-18T03:29:27.744Z,14.52
2023-02-18T03:31:59.743Z,14.24
2023-02-18T03:34:33.173Z,14.34
2023-02-18T03:37:01.741Z,14.26
2023-02-18T03:39:31.430Z,14.38
2023-02-18T03:41:59.185Z,14.33
2023-02-18T03:44:27.243Z,14.49
2023-02-18T03:46:55.484Z,14.33
2023-02-18T03:49:23.841Z,14.50
2023-02-18T03:51:51.509Z,14.23
2023-02-18T03:54:19.470Z,14.21
2023-02-18T03:56:47.142Z,14.23
2023-02-18T03:59:14.950Z,14.30
2023-02-18T04:01:43.370Z,14.35
2023-02-18T04:04:11.430Z,14.45
2023-02-18T04:06:39.117Z,14.33
2023-02-18T04:09:07.089Z,14.26
2023-02-18T04:11:38.704Z,14.23
2023-02-18T04:14:06.761Z,14.17
2023-02-18T04:16:34.416Z,14.34
2023-02-18T04:19:02.497Z,14.40
2023-02-18T04:21:30.399Z,14.14
2023-02-18T04:23:58.092Z,14.34
2023-02-18T04:26:26.554Z,14.31
2023-02-18T04:28:54.253Z,14.36
2023-02-18T04:31:22.145Z,14.35
2023-02-18T04:33:50.213Z,14.42
2023-02-18T04:36:17.974Z,14.22
2023-02-18T04:38:45.540Z,14.21
2023-02-18T04:41:13.520Z,14.11
2023-02-18T04:43:41.433Z,14.14
2023-02-18T04:46:09.345Z,14.22
2023-02-18T04:48:37.646Z,14.20
2023-02-18T04:51:06.269Z,14.23
2023-02-18T04:53:34.174Z,14.25
2023-02-18T04:56:02.174Z,14.23
2023-02-18T04:58:29.749Z,14.08
2023-02-18T05:01:02.361Z,14.26
2023-02-18T05:03:31.421Z,14.13
2023-02-18T05:05:59.468Z,13.88
2023-02-18T05:08:27.363Z,14.02
2023-02-18T05:10:55.431Z,13.96
2023-02-18T05:13:23.293Z,13.78
2023-02-18T05:15:50.976Z,13.90
2023-02-18T05:18:19.141Z,13.84
2023-02-18T05:20:47.186Z,13.80
2023-02-18T05:23:14.858Z,13.64
2023-02-18T05:25:43.106Z,13.55
2023-02-18T05:28:10.732Z,13.60
2023-02-18T05:30:38.896Z,13.60
2023-02-18T05:33:06.915Z,13.42
2023-02-18T05:35:34.544Z,13.64
2023-02-18T05:38:02.155Z,13.37
2023-02-18T05:40:30.068Z,13.37
2023-02-18T05:42:57.771Z,13.41
2023-02-18T05:45:25.420Z,13.33
2023-02-18T05:47:53.449Z,13.28
2023-02-18T05:50:21.529Z,13.27
2023-02-18T05:52:49.306Z,13.43
2023-02-18T05:55:17.383Z,13.46
2023-02-18T05:57:44.962Z,13.46
2023-02-18T06:00:13.230Z,13.41
2023-02-18T06:02:41.568Z,13.25
2023-02-18T06:05:10.001Z,13.40
2023-02-18T06:07:38.200Z,13.15
2023-02-18T06:10:06.969Z,13.32
2023-02-18T06:12:34.564Z,13.15
2023-02-18T06:15:02.314Z,13.21
2023-02-18T06:17:30.245Z,13.18
2023-02-18T06:19:57.886Z,13.02
2023-02-18T06:22:25.539Z,13.22
2023-02-18T06:24:53.522Z,13.12
2023-02-18T06:27:21.194Z,13.18
2023-02-18T06:29:49.839Z,13.00
2023-02-18T06:32:18.126Z,13.10
2023-02-18T06:34:45.768Z,13.05
2023-02-18T06:37:13.496Z,13.16
2023-02-18T06:39:41.656Z,13.13
2023-02-18T06:42:09.241Z,12.93
2023-02-18T06:44:38.034Z,12.99
2023-02-18T06:47:06.245Z,13.08
2023-02-18T06:49:33.991Z,12.95
2023-02-18T06:52:01.898Z,12.98
2023-02-18T06:54:30.102Z,12.86
2023-02-18T06:56:57.802Z,12.97
2023-02-18T06:59:25.532Z,12.82
2023-02-18T07:01:53.810Z,12.89
2023-02-18T07:04:21.666Z,13.02
2023-02-18T07:06:49.667Z,12.85
2023-02-18T07:09:17.752Z,13.00
2023-02-18T07:11:45.398Z,13.28
2023-02-18T07:14:13.116Z,13.06
2023-02-18T07:16:41.688Z,13.12
2023-02-18T07:19:09.574Z,13.08
2023-02-18T07:21:37.355Z,13.25
2023-02-18T07:24:06.169Z,13.26
2023-02-18T07:26:33.870Z,13.33
2023-02-18T07:29:01.984Z,13.33
2023-02-18T07:31:30.228Z,13.33
2023-02-18T07:33:57.972Z,13.23
2023-02-18T07:36:25.609Z,13.31
2023-02-18T07:38:53.623Z,13.22
2023-02-18T07:41:22.654Z,13.47
2023-02-18T07:43:50.605Z,13.43
2023-02-18T07:46:19.584Z,13.18
2023-02-18T07:48:47.729Z,13.45
2023-02-18T07:51:15.626Z,13.12
2023-02-18T07:53:44.021Z,13.28
2023-02-18T07:56:11.873Z,13.48
2023-02-18T07:58:40.094Z,13.60
2023-02-18T08:01:10.832Z,13.41
2023-02-18T08:03:39.182Z,13.59
2023-02-18T08:06:07.877Z,13.77
2023-02-18T08:08:37.135Z,13.73
2023-02-18T08:11:17.016Z,13.79
2023-02-18T08:13:47.653Z,14.10
2023-02-18T08:16:20.890Z,14.01
2023-02-18T08:18:50.670Z,14.24
2023-02-18T08:21:20.853Z,14.09
2023-02-18T08:23:48.796Z,14.51
2023-02-18T08:26:17.233Z,14.26
2023-02-18T08:28:45.997Z,14.23
2023-02-18T08:31:25.693Z,14.37
2023-02-18T08:33:54.854Z,14.20
2023-02-18T08:36:22.670Z,14.11
2023-02-18T08:38:51.153Z,14.24
2023-02-18T08:41:19.325Z,14.32
2023-02-18T08:43:47.624Z,14.41
2023-02-18T08:46:16.777Z,14.51
2023-02-18T08:48:53.269Z,14.29
2023-02-18T08:51:22.285Z,14.19
2023-02-18T08:53:50.343Z,14.22
2023-02-18T08:56:18.245Z,14.22
2023-02-18T08:58:46.002Z,14.33
2023-02-18T09:01:13.876Z,14.41
2023-02-18T09:03:42.038Z,14.45
2023-02-18T09:06:11.132Z,14.56
2023-02-18T09:08:38.771Z,14.63
2023-02-18T09:11:07.022Z,14.54
2023-02-18T09:13:35.210Z,14.43
2023-02-18T09:16:08.575Z,14.35
2023-02-18T09:18:36.988Z,14.38
2023-02-18T09:21:06.478Z,14.57
2023-02-18T09:23:34.925Z,14.65
2023-02-18T09:26:07.485Z,14.48
2023-02-18T09:28:47.465Z,14.58
2023-02-18T09:31:21.513Z,14.78
2023-02-18T09:33:55.082Z,14.84
2023-02-18T09:36:23.284Z,14.80
2023-02-18T09:38:51.239Z,14.98
2023-02-18T09:41:44.855Z,14.90
2023-02-18T09:44:33.519Z,14.67
2023-02-18T09:47:01.089Z,14.34
2023-02-18T09:49:32.446Z,14.58
2023-02-18T09:52:04.884Z,14.71
2023-02-18T09:54:32.882Z,14.45
2023-02-18T09:57:02.242Z,14.43
2023-02-18T09:59:30.783Z,14.33
2023-02-18T10:02:01.469Z,14.77
2023-02-18T10:04:39.687Z,14.94
2023-02-18T10:07:18.442Z,15.10
2023-02-18T10:09:48.853Z,15.42
2023-02-18T10:12:19.609Z,15.17
2023-02-18T10:14:55.431Z,15.43
2023-02-18T10:17:24.736Z,15.16
2023-02-18T10:19:55.097Z,15.07
2023-02-18T10:22:24.422Z,15.20
2023-02-18T10:24:54.828Z,14.80
2023-02-18T10:27:34.582Z,15.09
2023-02-18T10:30:12.867Z,14.98
2023-02-18T10:32:45.269Z,15.08
2023-02-18T10:35:18.005Z,15.17
2023-02-18T10:38:04.531Z,14.77
2023-02-18T10:40:32.458Z,15.17
2023-02-18T10:43:42.035Z,14.95
2023-02-18T10:46:34.471Z,14.96
2023-02-18T10:49:16.483Z,14.82
2023-02-18T10:51:50.158Z,15.03
2023-02-18T10:54:17.922Z,14.88
2023-02-18T10:56:49.924Z,14.78
2023-02-18T10:59:21.462Z,14.83
2023-02-18T11:02:15.208Z,14.99
2023-02-18T11:04:46.261Z,14.85
2023-02-18T11:07:19.522Z,14.97
2023-02-18T11:09:54.816Z,14.97
2023-02-18T11:12:25.780Z,14.92
2023-02-18T11:15:05.501Z,14.61
2023-02-18T11:17:34.325Z,14.80
2023-02-18T11:20:18.828Z,15.09
2023-02-18T11:22:46.907Z,14.63
2023-02-18T11:25:23.884Z,14.84
2023-02-18T11:28:18.581Z,14.86
2023-02-18T11:30:54.418Z,14.68
2023-02-18T11:33:29.040Z,14.76
2023-02-18T11:35:58.437Z,14.61
2023-02-18T11:38:29.910Z,14.79
2023-02-18T11:41:04.222Z,14.91
2023-02-18T11:43:33.901Z,14.62
2023-02-18T11:46:16.644Z,14.89
2023-02-18T11:48:45.600Z,14.93
2023-02-18T11:51:28.628Z,15.01
2023-02-18T11:54:02.269Z,15.09
2023-02-18T11:56:33.472Z,15.18
2023-02-18T11:59:04.301Z,15.26
2023-02-18T12:01:45.824Z,15.48
2023-02-18T12:04:18.569Z,15.64
2023-02-18T12:06:50.829Z,15.41
2023-02-18T12:09:37.474Z,15.34
2023-02-18T12:12:11.983Z,15.49
2023-02-18T12:14:39.928Z,16.12
2023-02-18T12:17:26.148Z,16.01
2023-02-18T12:20:07.209Z,16.12
2023-02-18T12:22:44.143Z,16.49
2023-02-18T12:25:24.410Z,16.62
2023-02-18T12:27:55.181Z,16.34
2023-02-18T12:30:23.077Z,16.41
2023-02-18T12:32:57.543Z,15.95
2023-02-18T12:35:43.770Z,16.17
2023-02-18T12:38:47.079Z,16.24
2023-02-18T12:41:31.150Z,15.96
2023-02-18T12:44:24.603Z,16.17
2023-02-18T12:47:11.367Z,16.14
2023-02-18T12:49:44.883Z,16.14
2023-02-18T12:52:13.208Z,16.48
2023-02-18T12:54:52.606Z,16.43
2023-02-18T12:57:29.702Z,16.30
2023-02-18T13:00:23.186Z,16.34
2023-02-18T13:02:54.188Z,16.68
2023-02-18T13:05:43.729Z,16.25
2023-02-18T13:08:44.084Z,16.65
2023-02-18T13:11:50.509Z,17.27
2023-02-18T13:14:22.544Z,18.43
2023-02-18T13:16:53.075Z,19.28
2023-02-18T13:19:40.405Z,19.45
2023-02-18T13:22:10.762Z,19.17
2023-02-18T13:24:40.711Z,19.04
2023-02-18T13:27:41.294Z,19.33
2023-02-18T13:30:53.068Z,19.79
2023-02-18T13:33:38.934Z,18.88
2023-02-18T13:48:28.615Z,17.96
2023-02-18T13:51:06.176Z,18.16
2023-02-18T13:53:38.210Z,18.10
2023-02-18T13:56:27.147Z,18.28
2023-02-18T13:59:01.068Z,18.02
2023-02-18T14:01:35.040Z,18.30
2023-02-18T14:04:36.597Z,18.14
2023-02-18T14:07:34.820Z,17.85
2023-02-18T14:10:17.197Z,17.89
2023-02-18T14:12:57.620Z,17.35
2023-02-18T14:15:25.473Z,17.30
2023-02-18T14:18:21.500Z,17.09
2023-02-18T14:20:50.433Z,16.82
2023-02-18T14:23:20.965Z,16.85
2023-02-18T14:26:04.168Z,16.78
2023-02-18T14:28:34.447Z,16.56
2023-02-18T14:31:30.918Z,16.84
2023-02-18T14:34:07.676Z,16.96
2023-02-18T14:36:54.220Z,17.04
2023-02-18T14:39:27.985Z,16.99
2023-02-18T14:41:59.006Z,16.96
2023-02-18T14:44:29.621Z,16.86
2023-02-18T14:47:24.818Z,16.65
2023-02-18T14:50:00.007Z,16.49
2023-02-18T14:52:32.316Z,16.18
2023-02-18T14:55:05.708Z,16.15
2023-02-18T14:58:15.302Z,16.34
2023-02-18T15:00:43.699Z,16.41
2023-02-18T15:03:15.103Z,16.41
2023-02-18T15:05:43.529Z,15.99
2023-02-18T15:08:15.936Z,16.22
2023-02-18T15:10:47.048Z,16.03
2023-02-18T15:13:20.335Z,15.14
2023-02-18T15:15:53.540Z,15.02
2023-02-18T15:18:47.513Z,14.67
2023-02-18T15:21:28.358Z,14.67
2023-02-18T15:24:02.521Z,14.41
2023-02-18T15:26:30.162Z,14.54
2023-02-18T15:29:01.576Z,14.26
2023-02-18T15:31:31.931Z,14.06
2023-02-18T15:34:00.118Z,14.07
2023-02-18T15:36:29.046Z,13.91
2023-02-18T15:38:59.664Z,13.63
2023-02-18T15:41:31.691Z,13.85
2023-02-18T15:44:02.998Z,13.68
2023-02-18T15:46:31.888Z,13.62
2023-02-18T15:49:01.124Z,13.59
2023-02-18T15:51:30.889Z,13.33
2023-02-18T15:54:01.063Z,13.36
2023-02-18T15:56:39.509Z,13.29
2023-02-18T15:59:27.669Z,13.26
2023-02-18T16:02:22.293Z,13.16
2023-02-18T16:04:59.765Z,12.95
2023-02-18T16:07:31.184Z,12.89
2023-02-18T16:10:19.822Z,12.65
2023-02-18T16:12:52.400Z,12.42
2023-02-18T16:15:31.293Z,12.33
2023-02-18T16:17:58.987Z,12.33
2023-02-18T16:20:37.917Z,12.09
2023-02-18T16:23:14.418Z,11.90
2023-02-18T16:25:45.418Z,12.12
2023-02-18T16:28:26.936Z,12.10
2023-02-18T16:30:54.760Z,12.21
2023-02-18T16:33:22.560Z,12.12
2023-02-18T16:35:50.983Z,11.69
2023-02-18T16:38:21.464Z,11.47
2023-02-18T16:40:49.715Z,11.88
2023-02-18T16:43:24.831Z,11.71
2023-02-18T16:45:56.543Z,11.39
2023-02-18T16:48:30.705Z,11.32
2023-02-18T16:51:05.480Z,11.34
2023-02-18T16:53:33.508Z,11.30
2023-02-18T16:56:01.552Z,11.20
2023-02-18T16:58:31.844Z,11.29
2023-02-18T17:01:02.080Z,11.18
2023-02-18T17:03:30.616Z,10.83
2023-02-18T17:05:59.899Z,10.80
2023-02-18T17:08:28.607Z,10.88
2023-02-18T17:10:59.271Z,10.90
2023-02-18T17:13:29.525Z,10.62
2023-02-18T17:15:58.659Z,10.53
2023-02-18T17:18:26.600Z,10.56
2023-02-18T17:20:54.534Z,10.64
2023-02-18T17:23:23.805Z,10.75
2023-02-18T17:25:52.451Z,10.60
2023-02-18T17:28:20.449Z,10.49
2023-02-18T17:30:54.966Z,10.32
2023-02-18T17:33:24.494Z,10.43
2023-02-18T17:35:52.903Z,10.32
2023-02-18T17:38:20.737Z,10.22
2023-02-18T17:40:48.625Z,10.17
2023-02-18T17:43:18.214Z,10.05
2023-02-18T17:45:49.380Z,10.16
2023-02-18T17:48:17.681Z,10.03
2023-02-18T17:50:45.873Z,9.88
2023-02-18T17:53:14.658Z,9.98
2023-02-18T17:55:44.413Z,9.87
2023-02-18T17:58:13.406Z,9.74
2023-02-18T18:00:47.769Z,9.75
2023-02-18T18:03:16.332Z,9.93
2023-02-18T18:05:48.686Z,9.67
2023-02-18T18:08:18.551Z,9.62
2023-02-18T18:10:53.109Z,9.63
2023-02-18T18:13:27.066Z,9.49
2023-02-18T18:15:57.652Z,9.52
2023-02-18T18:18:27.695Z,9.34
2023-02-18T18:21:00.286Z,9.52
2023-02-18T18:23:28.693Z,9.44
2023-02-18T18:25:57.598Z,9.66
2023-02-18T18:28:26.698Z,9.59
2023-02-18T18:30:56.106Z,9.55
2023-02-18T18:33:32.421Z,9.66
2023-02-18T18:36:01.479Z,9.59
2023-02-18T18:38:30.836Z,9.67
2023-02-18T18:40:58.773Z,9.85
2023-02-18T18:43:33.152Z,9.92
2023-02-18T18:46:02.353Z,10.12
2023-02-18T18:48:30.605Z,10.10
2023-02-18T18:50:59.197Z,10.23
2023-02-18T18:53:30.136Z,9.88
2023-02-18T18:56:00.201Z,9.86
2023-02-18T18:58:28.903Z,10.10
2023-02-18T19:01:01.976Z,9.96
2023-02-18T19:03:30.902Z,10.08
2023-02-18T19:05:59.298Z,10.08
2023-02-18T19:08:27.295Z,9.95
2023-02-18T19:10:56.873Z,10.11
2023-02-18T19:13:27.726Z,10.18
2023-02-18T19:16:14.510Z,10.18
2023-02-18T19:18:43.100Z,10.47
2023-02-18T19:21:11.425Z,10.41
2023-02-18T19:23:41.143Z,10.54
2023-02-18T19:26:10.141Z,10.56
2023-02-18T19:28:38.339Z,10.55
2023-02-18T19:31:10.414Z,10.48
2023-02-18T19:33:39.457Z,10.43
2023-02-18T19:36:09.024Z,10.38
2023-02-18T19:38:38.586Z,10.13
2023-02-18T19:41:11.860Z,10.21
2023-02-18T19:43:41.172Z,10.11
2023-02-18T19:46:14.634Z,10.22
2023-02-18T19:48:43.437Z,10.23
2023-02-18T19:51:11.849Z,10.37
2023-02-18T19:53:40.310Z,10.33
2023-02-18T19:56:08.287Z,10.25
2023-02-18T19:58:37.323Z,10.26
2023-02-18T20:01:14.278Z,10.46
2023-02-18T20:03:43.753Z,10.26
2023-02-18T20:06:17.927Z,10.08
2023-02-18T20:08:46.150Z,10.09
2023-02-18T20:11:14.390Z,10.04
2023-02-18T20:13:42.625Z,10.05
2023-02-18T20:16:11.096Z,10.13
2023-02-18T20:18:38.715Z,10.13
2023-02-18T20:21:06.700Z,10.00
2023-02-18T20:23:35.239Z,10.00
2023-02-18T20:26:08.145Z,10.01
2023-02-18T20:28:36.480Z,10.02
2023-02-18T20:31:08.896Z,10.30
2023-02-18T20:33:38.432Z,10.15
2023-02-18T20:36:06.836Z,10.10
2023-02-18T20:38:37.499Z,10.21
2023-02-18T20:41:12.118Z,10.23
2023-02-18T20:43:41.019Z,10.24
2023-02-18T20:46:12.272Z,10.51
2023-02-18T20:48:40.481Z,10.65
2023-02-18T20:51:11.666Z,10.57
2023-02-18T20:53:42.761Z,10.66
2023-02-18T20:56:10.857Z,10.68
2023-02-18T20:58:41.039Z,10.96
2023-02-18T21:01:12.353Z,10.89
2023-02-18T21:03:40.296Z,10.71
2023-02-18T21:06:11.351Z,10.85
2023-02-18T21:08:40.568Z,10.90
2023-02-18T21:11:12.000Z,10.96
2023-02-18T21:13:40.576Z,10.83
2023-02-18T21:16:09.889Z,10.99
2023-02-18T21:18:37.758Z,10.83
2023-02-18T21:21:09.482Z,10.92
2023-02-18T21:23:40.183Z,10.86
2023-02-18T21:26:14.141Z,10.87
2023-02-18T21:28:43.098Z,10.92
2023-02-18T21:31:16.254Z,10.94
2023-02-18T21:33:49.873Z,10.96
2023-02-18T21:36:46.683Z,10.81
2023-02-18T21:39:14.863Z,10.83
2023-02-18T21:41:45.793Z,10.87
2023-02-18T21:44:13.676Z,10.99
2023-02-18T21:47:03.367Z,10.85
2023-02-18T21:49:31.332Z,11.10
2023-02-18T21:51:59.558Z,11.03
2023-02-18T21:54:32.658Z,10.88
2023-02-18T21:57:02.337Z,11.22
2023-02-18T21:59:33.681Z,11.22
2023-02-18T22:02:15.000Z,11.21
2023-02-18T22:04:53.092Z,11.31
2023-02-18T22:07:22.829Z,11.21
2023-02-18T22:09:50.875Z,11.11
2023-02-18T22:12:18.820Z,11.01
2023-02-18T22:14:46.961Z,11.31
2023-02-18T22:17:15.495Z,11.56
2023-02-18T22:19:46.093Z,11.48
2023-02-18T22:22:14.035Z,11.49
2023-02-18T22:24:42.055Z,11.52
2023-02-18T22:27:09.770Z,11.49
2023-02-18T22:29:37.512Z,11.67
2023-02-18T22:32:05.674Z,11.89
2023-02-18T22:34:33.422Z,11.90
2023-02-18T22:37:01.124Z,11.91
2023-02-18T22:39:29.316Z,12.09
2023-02-18T22:41:57.038Z,12.14
2023-02-18T22:44:24.786Z,12.18
2023-02-18T22:46:56.218Z,12.38
2023-02-18T22:49:24.554Z,12.24
2023-02-18T22:51:56.039Z,12.39
2023-02-18T22:54:26.659Z,12.44
2023-02-18T22:56:54.683Z,12.50
2023-02-18T22:59:22.521Z,12.53
2023-02-18T23:01:50.593Z,12.52
2023-02-18T23:04:21.758Z,12.47
2023-02-18T23:06:49.984Z,12.44
2023-02-18T23:09:23.414Z,12.56
2023-02-18T23:11:56.598Z,12.70
2023-02-18T23:14:28.159Z,12.47
2023-02-18T23:17:00.611Z,12.50
2023-02-18T23:19:33.442Z,12.63
2023-02-18T23:22:01.078Z,12.58
2023-02-18T23:24:32.148Z,12.54
2023-02-18T23:27:00.222Z,12.63
2023-02-18T23:29:27.978Z,12.44
2023-02-18T23:31:56.276Z,12.66
2023-02-18T23:34:23.918Z,12.45
2023-02-18T23:36:56.023Z,12.45
2023-02-18T23:39:27.194Z,12.49
2023-02-18T23:41:57.857Z,12.51
2023-02-18T23:44:27.036Z,12.39
2023-02-18T23:46:57.572Z,12.43
2023-02-18T23:49:29.186Z,12.48
2023-02-18T23:51:57.250Z,12.40
2023-02-18T23:54:25.918Z,12.43
2023-02-18T23:56:53.740Z,12.39
2023-02-18T23:59:21.436Z,12.28
